Time;durP1;ratioP1;P1;durP2;ratioP2;P2;SDS_P1;SDS_P2;PMS_P1;PMS_P2;Temp;Humidity;BMP_temperature;BMP_pressure;BME280_temperature;BME280_humidity;BME280_pressure;Samples;Min_cycle;Max_cycle;Signal;HPM_P1;HPM_P2
2024/03/07 00:02:20;;;;;;;23.52;14.55;;;5.60;99.90;;;;;;5093824;28;20040;-68
2024/03/07 00:04:46;;;;;;;22.88;15.13;;;5.60;99.90;;;;;;5094116;28;20111;-68
2024/03/07 00:07:11;;;;;;;25.58;15.20;;;5.60;99.90;;;;;;5093711;28;20416;-68
2024/03/07 00:09:37;;;;;;;21.67;14.10;;;5.60;99.90;;;;;;5093767;28;20031;-69
2024/03/07 00:12:03;;;;;;;24.20;15.23;;;5.50;99.90;;;;;;5093847;28;20059;-68
2024/03/07 00:14:31;;;;;;;22.75;14.07;;;5.50;99.90;;;;;;5092934;28;20093;-69
2024/03/07 00:16:59;;;;;;;23.58;14.70;;;5.50;99.90;;;;;;5093994;28;20046;-68
2024/03/07 00:19:28;;;;;;;23.20;14.52;;;5.50;99.90;;;;;;5093511;28;20458;-68
2024/03/07 00:21:54;;;;;;;24.00;15.23;;;5.40;99.90;;;;;;5093385;28;20036;-68
2024/03/07 00:24:20;;;;;;;21.98;14.45;;;5.50;99.90;;;;;;5093947;28;20044;-68
2024/03/07 00:26:46;;;;;;;28.38;15.27;;;5.50;99.90;;;;;;5093956;28;20522;-69
2024/03/07 00:29:12;;;;;;;24.17;14.05;;;5.40;99.90;;;;;;5094099;28;20040;-68
2024/03/07 00:31:37;;;;;;;23.70;15.00;;;5.50;99.90;;;;;;5093013;28;20047;-68
2024/03/07 00:34:03;;;;;;;24.95;13.68;;;5.40;99.90;;;;;;5093965;28;20040;-69
2024/03/07 00:36:28;;;;;;;22.48;14.32;;;5.40;99.90;;;;;;5094183;28;20040;-68
2024/03/07 00:38:54;;;;;;;21.52;14.35;;;5.40;99.90;;;;;;5093780;28;20071;-69
2024/03/07 00:41:20;;;;;;;22.35;13.90;;;5.40;99.90;;;;;;5093233;28;20044;-69
2024/03/07 00:43:47;;;;;;;22.00;14.25;;;5.50;99.90;;;;;;5094377;28;20407;-69
2024/03/07 00:46:12;;;;;;;22.17;14.45;;;5.40;99.90;;;;;;5093582;28;20036;-68
2024/03/07 00:48:38;;;;;;;22.60;14.48;;;5.50;99.90;;;;;;5093120;28;20050;-68
2024/03/07 00:51:04;;;;;;;24.10;14.18;;;5.40;99.90;;;;;;5092743;28;20036;-68
2024/03/07 00:53:30;;;;;;;23.50;13.82;;;5.40;99.90;;;;;;5093168;28;20043;-69
2024/03/07 00:55:57;;;;;;;22.27;13.93;;;5.50;99.90;;;;;;5093286;28;20048;-68
2024/03/07 00:58:22;;;;;;;20.83;14.38;;;5.40;99.90;;;;;;5092804;28;20040;-68
2024/03/07 01:00:48;;;;;;;19.08;13.70;;;5.40;99.90;;;;;;5093111;28;20409;-68
2024/03/07 01:03:14;;;;;;;21.67;13.63;;;5.40;99.90;;;;;;5092486;28;20119;-68
2024/03/07 01:05:42;;;;;;;22.63;14.18;;;5.40;99.90;;;;;;5093168;28;20097;-68
2024/03/07 01:08:08;;;;;;;20.98;13.00;;;5.30;99.90;;;;;;5092964;28;20123;-68
2024/03/07 01:10:33;;;;;;;22.40;14.23;;;5.30;99.90;;;;;;5092859;28;20112;-68
2024/03/07 01:13:01;;;;;;;21.17;13.55;;;5.30;99.90;;;;;;5092449;28;20101;-68
2024/03/07 01:15:32;;;;;;;22.42;14.18;;;5.30;99.90;;;;;;5091649;28;20040;-68
2024/03/07 01:17:58;;;;;;;21.25;13.82;;;5.20;99.90;;;;;;5092564;28;20032;-68
2024/03/07 01:20:25;;;;;;;23.00;15.23;;;5.20;99.90;;;;;;5092703;28;20046;-68
2024/03/07 01:22:51;;;;;;;23.63;14.25;;;5.20;99.90;;;;;;5092312;28;20043;-69
2024/03/07 01:25:18;;;;;;;21.35;13.32;;;5.10;99.90;;;;;;5091247;28;20048;-68
2024/03/07 01:27:44;;;;;;;21.65;13.25;;;5.10;99.90;;;;;;5092716;28;20040;-68
2024/03/07 01:30:10;;;;;;;25.92;14.27;;;5.10;99.90;;;;;;5092270;28;20036;-69
2024/03/07 01:32:36;;;;;;;23.42;14.30;;;5.10;99.90;;;;;;5091825;28;20085;-68
2024/03/07 01:35:02;;;;;;;20.67;13.02;;;5.00;99.90;;;;;;5092610;28;20074;-68
2024/03/07 01:37:28;;;;;;;21.02;12.88;;;5.00;99.90;;;;;;5091067;28;20089;-68
2024/03/07 01:39:54;;;;;;;19.95;12.90;;;4.90;99.90;;;;;;5090980;28;20377;-68
2024/03/07 01:42:20;;;;;;;22.80;15.45;;;5.00;99.90;;;;;;5091940;28;20046;-69
2024/03/07 01:44:46;;;;;;;21.88;13.15;;;4.90;99.90;;;;;;5092186;28;20070;-69
2024/03/07 01:47:12;;;;;;;20.80;13.00;;;4.80;99.90;;;;;;5092124;28;20052;-68
2024/03/07 01:49:38;;;;;;;20.52;12.88;;;4.80;99.90;;;;;;5091999;28;20475;-69
2024/03/07 01:52:05;;;;;;;22.73;14.93;;;4.80;99.90;;;;;;5091864;28;20040;-69
2024/03/07 01:54:31;;;;;;;24.58;14.00;;;4.70;99.90;;;;;;5090853;28;20044;-69
2024/03/07 01:56:58;;;;;;;24.80;14.18;;;4.70;99.90;;;;;;5092068;28;20047;-68
2024/03/07 01:59:24;;;;;;;21.70;13.95;;;4.60;99.90;;;;;;5091766;28;20384;-68
2024/03/07 02:01:50;;;;;;;21.50;12.63;;;4.60;99.90;;;;;;5091389;28;20061;-68
2024/03/07 02:04:16;;;;;;;22.42;14.43;;;4.60;99.90;;;;;;5092214;28;20123;-69
2024/03/07 02:06:42;;;;;;;23.52;14.57;;;4.60;99.90;;;;;;5092015;28;20118;-68
2024/03/07 02:09:08;;;;;;;24.00;14.05;;;4.60;99.90;;;;;;5091578;28;20032;-68
2024/03/07 02:11:34;;;;;;;22.58;13.98;;;4.60;99.90;;;;;;5091369;28;20069;-68
2024/03/07 02:13:59;;;;;;;20.65;13.38;;;4.60;99.90;;;;;;5091857;28;20036;-68
2024/03/07 02:16:25;;;;;;;27.88;15.38;;;4.50;99.90;;;;;;5091644;28;20083;-68
2024/03/07 02:18:51;;;;;;;22.67;14.32;;;4.50;99.90;;;;;;5091681;28;20102;-68
2024/03/07 02:21:17;;;;;;;25.45;14.70;;;4.40;99.90;;;;;;5090223;28;20043;-69
2024/03/07 02:23:43;;;;;;;26.67;14.15;;;4.50;99.90;;;;;;5091791;28;20111;-69
2024/03/07 02:26:09;;;;;;;19.88;12.88;;;4.40;99.90;;;;;;5091669;28;20126;-69
2024/03/07 02:28:35;;;;;;;20.05;13.65;;;4.40;99.90;;;;;;5090074;28;20123;-69
2024/03/07 02:31:01;;;;;;;23.73;12.95;;;4.40;99.90;;;;;;5091002;28;20039;-68
2024/03/07 02:33:26;;;;;;;21.92;13.65;;;4.40;99.90;;;;;;5091702;28;20071;-68
2024/03/07 02:35:52;;;;;;;20.92;13.75;;;4.40;99.90;;;;;;5091756;28;20547;-68
2024/03/07 02:38:19;;;;;;;24.88;12.80;;;4.30;99.90;;;;;;5090383;28;20415;-68
2024/03/07 02:40:46;;;;;;;20.92;13.73;;;4.30;99.90;;;;;;5091576;28;20028;-68
2024/03/07 02:43:12;;;;;;;23.13;13.13;;;4.20;99.90;;;;;;5089738;28;20040;-68
2024/03/07 02:45:37;;;;;;;21.48;12.75;;;4.20;99.90;;;;;;5091351;28;20044;-68
2024/03/07 02:48:06;;;;;;;20.05;13.75;;;4.20;99.90;;;;;;5090166;28;20058;-69
2024/03/07 02:50:32;;;;;;;24.25;14.13;;;4.20;99.90;;;;;;5091185;28;20036;-69
2024/03/07 02:52:57;;;;;;;25.65;14.40;;;4.10;99.90;;;;;;5091065;28;20044;-68
2024/03/07 02:55:23;;;;;;;20.85;13.27;;;4.10;99.90;;;;;;5091845;28;20043;-68
2024/03/07 02:57:48;;;;;;;22.08;14.68;;;4.10;99.90;;;;;;5095368;28;20044;-68
2024/03/07 03:00:20;;;;;;;18.70;12.23;;;4.10;99.90;;;;;;5095041;28;20040;-68
2024/03/07 03:02:47;;;;;;;22.10;13.52;;;4.00;99.90;;;;;;5092896;28;20091;-68
2024/03/07 03:05:14;;;;;;;19.48;12.40;;;4.10;99.90;;;;;;5091459;28;20063;-68
2024/03/07 03:07:41;;;;;;;19.52;12.77;;;4.00;99.90;;;;;;5086938;28;20040;-68
2024/03/07 03:10:09;;;;;;;20.77;13.45;;;4.00;99.90;;;;;;5094674;28;20039;-68
2024/03/07 03:12:37;;;;;;;22.10;13.45;;;3.90;99.90;;;;;;5093337;28;20028;-69
2024/03/07 03:15:04;;;;;;;20.33;13.50;;;3.90;99.90;;;;;;5095344;28;20456;-68
2024/03/07 03:17:30;;;;;;;20.83;13.40;;;3.70;99.90;;;;;;5095205;28;20051;-68
2024/03/07 03:19:56;;;;;;;18.33;12.57;;;3.70;99.90;;;;;;5094877;28;20094;-69
2024/03/07 03:22:22;;;;;;;27.17;14.43;;;3.70;99.90;;;;;;5094557;28;20135;-68
2024/03/07 03:24:47;;;;;;;20.55;13.75;;;3.60;99.90;;;;;;5094881;28;20039;-68
2024/03/07 03:27:13;;;;;;;23.95;14.02;;;3.60;99.90;;;;;;5094806;28;20024;-68
2024/03/07 03:29:40;;;;;;;21.13;12.30;;;3.70;99.90;;;;;;5094503;28;20086;-69
2024/03/07 03:32:07;;;;;;;25.75;13.82;;;3.60;99.90;;;;;;5094492;28;20115;-68
2024/03/07 03:34:33;;;;;;;22.25;13.38;;;3.70;99.90;;;;;;5094791;28;20048;-68
2024/03/07 03:36:59;;;;;;;20.05;13.45;;;3.60;99.90;;;;;;5094531;28;20514;-68
2024/03/07 03:39:26;;;;;;;21.33;13.75;;;3.50;99.90;;;;;;5094199;28;20119;-68
2024/03/07 03:41:52;;;;;;;21.33;13.05;;;3.40;99.90;;;;;;5094187;28;20496;-68
2024/03/07 03:44:18;;;;;;;22.40;13.15;;;3.50;99.90;;;;;;5094661;28;20084;-68
2024/03/07 03:46:44;;;;;;;21.38;13.35;;;3.50;99.90;;;;;;5094596;28;20048;-68
2024/03/07 03:49:10;;;;;;;21.00;13.10;;;3.60;99.90;;;;;;5094171;28;20490;-68
2024/03/07 03:51:36;;;;;;;23.65;14.45;;;3.50;99.90;;;;;;5093968;28;20412;-68
2024/03/07 03:54:02;;;;;;;22.52;13.15;;;3.50;99.90;;;;;;5093246;28;20040;-69
2024/03/07 03:56:28;;;;;;;21.30;14.35;;;3.50;99.90;;;;;;5094305;28;20072;-69
2024/03/07 03:58:53;;;;;;;19.30;12.85;;;3.50;99.90;;;;;;5094184;28;20124;-68
2024/03/07 04:01:19;;;;;;;25.27;14.43;;;3.50;99.90;;;;;;5093949;28;20517;-68
2024/03/07 04:03:46;;;;;;;25.63;15.60;;;3.50;99.90;;;;;;5094273;28;20032;-68
2024/03/07 04:06:12;;;;;;;23.02;14.70;;;3.60;99.90;;;;;;5094167;28;20048;-68
2024/03/07 04:08:38;;;;;;;23.33;14.27;;;3.40;99.90;;;;;;5092486;28;20529;-68
2024/03/07 04:11:04;;;;;;;23.52;14.15;;;3.50;99.90;;;;;;5093585;28;20601;-68
2024/03/07 04:13:31;;;;;;;22.88;13.93;;;3.40;99.90;;;;;;5092739;28;20130;-69
2024/03/07 04:15:57;;;;;;;24.23;13.80;;;3.40;99.90;;;;;;5094167;28;20036;-69
2024/03/07 04:18:22;;;;;;;21.52;14.30;;;3.40;99.90;;;;;;5093705;28;20040;-69
2024/03/07 04:20:49;;;;;;;24.00;14.48;;;3.30;99.90;;;;;;5093956;28;20114;-68
2024/03/07 04:23:15;;;;;;;23.83;14.07;;;3.30;99.90;;;;;;5093310;28;20040;-68
2024/03/07 04:25:41;;;;;;;25.83;15.75;;;3.20;99.90;;;;;;5092428;28;20093;-68
2024/03/07 04:28:06;;;;;;;24.40;15.02;;;3.30;99.90;;;;;;5092634;28;20109;-68
2024/03/07 04:30:32;;;;;;;23.13;15.07;;;3.30;99.90;;;;;;5109874;28;20047;-68
2024/03/07 04:32:58;;;;;;;23.42;14.38;;;3.30;99.90;;;;;;5113792;28;20063;-68
2024/03/07 04:35:24;;;;;;;24.95;14.38;;;3.20;99.90;;;;;;5114066;27;20031;-68
2024/03/07 04:37:50;;;;;;;26.35;15.68;;;3.20;99.90;;;;;;5113803;28;20073;-68
2024/03/07 04:40:16;;;;;;;24.67;15.63;;;3.20;99.90;;;;;;5113566;27;20036;-68
2024/03/07 04:42:48;;;;;;;25.73;15.50;;;3.10;99.90;;;;;;5113490;28;20406;-68
2024/03/07 04:45:14;;;;;;;25.63;14.98;;;3.30;99.90;;;;;;5113632;28;20514;-68
2024/03/07 04:47:41;;;;;;;24.65;15.95;;;3.20;99.90;;;;;;5113882;28;20036;-68
2024/03/07 04:50:10;;;;;;;23.50;14.60;;;3.30;99.90;;;;;;5113388;28;20130;-68
2024/03/07 04:52:39;;;;;;;25.45;15.38;;;3.20;99.90;;;;;;5111809;28;20032;-68
2024/03/07 04:55:08;;;;;;;24.60;15.18;;;3.20;99.90;;;;;;5113761;28;20064;-68
2024/03/07 04:57:35;;;;;;;28.58;16.77;;;3.20;99.90;;;;;;5113613;28;20036;-68
2024/03/07 05:00:01;;;;;;;27.48;17.10;;;3.20;99.90;;;;;;5113326;28;20188;-68
2024/03/07 05:02:27;;;;;;;26.38;16.52;;;3.10;99.90;;;;;;5113095;28;20675;-68
2024/03/07 05:04:52;;;;;;;28.15;16.63;;;3.10;99.90;;;;;;5113244;28;20039;-68
2024/03/07 05:07:18;;;;;;;28.65;17.40;;;3.20;99.90;;;;;;5112869;28;20027;-69
2024/03/07 05:09:44;;;;;;;32.05;18.63;;;3.20;99.90;;;;;;5112911;28;20032;-69
2024/03/07 05:12:10;;;;;;;29.83;17.88;;;3.20;99.90;;;;;;5112844;28;20084;-68
2024/03/07 05:14:36;;;;;;;31.05;17.98;;;3.20;99.90;;;;;;5113263;28;20032;-68
2024/03/07 05:17:04;;;;;;;34.17;19.35;;;3.10;99.90;;;;;;5113171;28;20036;-68
2024/03/07 05:19:33;;;;;;;32.53;19.67;;;3.20;99.90;;;;;;5112466;28;20046;-68
2024/03/07 05:21:59;;;;;;;33.75;21.33;;;3.00;99.90;;;;;;5112808;28;20035;-68
2024/03/07 05:24:24;;;;;;;35.33;19.23;;;3.00;99.90;;;;;;5113167;28;20114;-68
2024/03/07 05:26:52;;;;;;;39.20;21.55;;;3.20;99.90;;;;;;5112882;28;20043;-69
2024/03/07 05:29:18;;;;;;;34.33;20.40;;;3.00;99.90;;;;;;5112693;28;20035;-69
2024/03/07 05:31:48;;;;;;;37.50;21.08;;;3.00;99.90;;;;;;5112451;28;20041;-68
2024/03/07 05:34:14;;;;;;;38.38;20.95;;;2.90;99.90;;;;;;5112727;28;20040;-68
2024/03/07 05:36:46;;;;;;;38.70;20.85;;;3.00;99.90;;;;;;5112985;27;20461;-68
2024/03/07 05:39:17;;;;;;;38.53;20.92;;;2.80;99.90;;;;;;5111168;28;20078;-68
2024/03/07 05:41:45;;;;;;;43.67;23.65;;;2.90;99.90;;;;;;5112240;28;20144;-69
2024/03/07 05:44:11;;;;;;;43.38;23.90;;;2.90;99.90;;;;;;5112708;28;20043;-68
2024/03/07 05:46:40;;;;;;;47.72;26.55;;;2.80;99.90;;;;;;5111291;28;20051;-68
2024/03/07 05:49:07;;;;;;;44.28;25.42;;;2.80;99.90;;;;;;5112295;28;20054;-68
2024/03/07 05:51:32;;;;;;;45.97;25.08;;;2.90;99.90;;;;;;5112224;28;20084;-68
2024/03/07 05:53:58;;;;;;;47.58;25.90;;;2.80;99.90;;;;;;5111539;28;20027;-68
2024/03/07 05:56:24;;;;;;;42.80;25.58;;;2.90;99.90;;;;;;5112453;28;20071;-68
2024/03/07 05:58:51;;;;;;;48.05;26.92;;;2.70;99.90;;;;;;5112121;28;20050;-68
2024/03/07 06:01:17;;;;;;;52.30;27.25;;;2.80;99.90;;;;;;5111587;27;20074;-68
2024/03/07 06:03:43;;;;;;;47.22;26.35;;;2.80;99.90;;;;;;5112430;28;20036;-68
2024/03/07 06:06:11;;;;;;;51.05;27.27;;;2.80;99.90;;;;;;5112140;28;20428;-68
2024/03/07 06:08:37;;;;;;;48.92;26.33;;;2.70;99.90;;;;;;5110481;28;20096;-68
2024/03/07 06:11:03;;;;;;;52.42;28.90;;;2.60;99.90;;;;;;5111592;28;20043;-68
2024/03/07 06:13:28;;;;;;;46.97;27.80;;;2.60;99.90;;;;;;5112085;28;20036;-68
2024/03/07 06:15:54;;;;;;;49.95;27.20;;;2.60;99.90;;;;;;5112001;28;20100;-69
2024/03/07 06:18:19;;;;;;;53.50;28.45;;;2.50;99.90;;;;;;5111992;28;20039;-68
2024/03/07 06:20:45;;;;;;;53.78;27.25;;;2.50;99.90;;;;;;5112117;28;20074;-68
2024/03/07 06:23:16;;;;;;;52.25;27.92;;;2.60;99.90;;;;;;5111692;28;20036;-68
2024/03/07 06:25:51;;;;;;;59.90;29.60;;;2.50;99.90;;;;;;5112001;28;20035;-68
2024/03/07 06:28:17;;;;;;;65.40;31.92;;;2.40;99.90;;;;;;5110665;28;20040;-68
2024/03/07 06:30:47;;;;;;;61.30;30.75;;;2.20;99.90;;;;;;5111055;28;20062;-68
2024/03/07 06:33:14;;;;;;;72.45;31.90;;;2.30;99.90;;;;;;5111519;28;20032;-68
2024/03/07 06:35:41;;;;;;;72.10;30.15;;;2.30;99.90;;;;;;5111981;28;20048;-69
2024/03/07 06:38:08;;;;;;;84.63;32.67;;;2.40;99.90;;;;;;5110702;28;20053;-68
2024/03/07 06:40:37;;;;;;;69.25;32.67;;;2.50;99.90;;;;;;5111584;28;20035;-68
2024/03/07 06:43:04;;;;;;;80.18;36.42;;;2.20;99.90;;;;;;5111284;28;20042;-68
2024/03/07 06:45:31;;;;;;;93.53;38.45;;;2.40;99.90;;;;;;5110655;28;20052;-69
2024/03/07 06:47:56;;;;;;;75.93;33.50;;;2.00;99.90;;;;;;5111765;28;20395;-68
2024/03/07 06:50:23;;;;;;;85.75;34.83;;;2.40;99.90;;;;;;5111626;28;20089;-68
2024/03/07 06:52:49;;;;;;;81.53;35.33;;;2.30;99.90;;;;;;5111923;28;20074;-68
2024/03/07 06:55:18;;;;;;;89.38;38.03;;;2.40;99.90;;;;;;5112367;28;20123;-68
2024/03/07 06:57:47;;;;;;;78.32;34.00;;;2.30;99.90;;;;;;5112330;28;20044;-68
2024/03/07 07:00:18;;;;;;;80.68;34.60;;;2.20;99.90;;;;;;5111984;28;20114;-68
2024/03/07 07:02:44;;;;;;;85.60;36.90;;;2.50;99.90;;;;;;5094332;28;20372;-69
2024/03/07 07:05:15;;;;;;;81.80;37.63;;;2.40;99.90;;;;;;5111728;28;20079;-68
2024/03/07 07:07:44;;;;;;;85.38;33.28;;;2.30;99.90;;;;;;5111786;28;20039;-68
2024/03/07 07:10:17;;;;;;;89.97;35.08;;;2.20;99.90;;;;;;5111163;28;20178;-68
2024/03/07 07:12:47;;;;;;;74.22;31.73;;;2.30;99.90;;;;;;5111461;28;20039;-69
2024/03/07 07:15:21;;;;;;;81.40;32.08;;;2.30;99.90;;;;;;5093321;28;20119;-68
2024/03/07 07:17:51;;;;;;;84.75;32.75;;;2.40;99.90;;;;;;5110434;28;20039;-68
2024/03/07 07:20:17;;;;;;;65.65;31.15;;;2.40;99.90;;;;;;5109959;28;20051;-68
2024/03/07 07:22:46;;;;;;;75.97;32.33;;;2.40;99.90;;;;;;5110901;28;20035;-68
2024/03/07 07:25:15;;;;;;;73.45;30.55;;;2.50;99.90;;;;;;5111486;28;20114;-68
2024/03/07 07:27:43;;;;;;;79.53;30.60;;;2.40;99.90;;;;;;5111549;28;20051;-68
2024/03/07 07:30:11;;;;;;;76.78;30.65;;;2.10;99.90;;;;;;5109782;28;20043;-68
2024/03/07 07:32:37;;;;;;;61.92;27.25;;;2.30;99.90;;;;;;5110990;28;20032;-68
2024/03/07 07:35:03;;;;;;;69.68;31.10;;;2.40;99.90;;;;;;5111201;28;20498;-68
2024/03/07 07:37:29;;;;;;;84.20;32.65;;;2.10;99.90;;;;;;5111559;28;20074;-68
2024/03/07 07:39:55;;;;;;;81.40;31.35;;;2.40;99.90;;;;;;5111237;28;20465;-69
2024/03/07 07:42:20;;;;;;;88.35;33.25;;;2.20;99.90;;;;;;5112611;28;20097;-69
2024/03/07 07:44:46;;;;;;;66.18;30.67;;;2.10;99.90;;;;;;5115006;28;20078;-69
2024/03/07 07:47:11;;;;;;;70.30;29.92;;;2.40;99.90;;;;;;5114897;28;20065;-69
2024/03/07 07:49:41;;;;;;;82.35;31.42;;;2.10;99.90;;;;;;5114409;28;20127;-68
2024/03/07 07:52:08;;;;;;;71.15;31.08;;;2.30;99.90;;;;;;5114538;27;20053;-68
2024/03/07 07:54:34;;;;;;;78.70;33.22;;;2.10;99.90;;;;;;5114858;28;20036;-68
2024/03/07 07:56:59;;;;;;;74.65;31.67;;;2.30;99.90;;;;;;5114689;28;20395;-68
2024/03/07 07:59:25;;;;;;;68.13;32.63;;;2.30;99.90;;;;;;5114340;28;20071;-69
2024/03/07 08:01:53;;;;;;;66.18;31.05;;;2.40;99.90;;;;;;5112938;28;20406;-68
2024/03/07 08:04:18;;;;;;;71.72;31.35;;;2.20;99.90;;;;;;5114453;28;20403;-68
2024/03/07 08:06:44;;;;;;;83.00;32.05;;;2.40;99.90;;;;;;5082641;28;20036;-68
2024/03/07 08:09:10;;;;;;;73.82;31.95;;;2.40;99.90;;;;;;5083725;28;20048;-68
2024/03/07 08:11:36;;;;;;;71.03;30.08;;;2.00;99.90;;;;;;5090487;28;20534;-68
2024/03/07 08:14:03;;;;;;;70.13;29.58;;;2.00;99.90;;;;;;5094010;28;20119;-68
2024/03/07 08:16:29;;;;;;;67.72;27.58;;;2.50;99.90;;;;;;5092782;28;20518;-68
2024/03/07 08:18:55;;;;;;;63.92;27.90;;;2.40;99.90;;;;;;5093471;28;20558;-68
2024/03/07 08:21:23;;;;;;;57.00;26.25;;;2.10;99.90;;;;;;5092299;28;20407;-69
2024/03/07 08:23:48;;;;;;;61.88;28.75;;;2.40;99.90;;;;;;5093983;28;20044;-68
2024/03/07 08:26:15;;;;;;;58.03;25.23;;;2.40;99.90;;;;;;5093863;28;20127;-68
2024/03/07 08:28:41;;;;;;;58.78;25.67;;;2.20;99.90;;;;;;5088213;28;20058;-69
2024/03/07 08:31:07;;;;;;;58.25;26.55;;;2.30;99.90;;;;;;5112538;28;20574;-68
2024/03/07 08:33:33;;;;;;;57.70;25.63;;;2.50;99.90;;;;;;5113749;28;20410;-69
2024/03/07 08:35:59;;;;;;;56.65;28.52;;;2.50;99.90;;;;;;5108413;28;20040;-68
2024/03/07 08:38:25;;;;;;;49.60;22.95;;;2.50;99.90;;;;;;5080613;28;20583;-68
2024/03/07 08:40:50;;;;;;;49.97;24.33;;;2.60;99.90;;;;;;5073118;28;20044;-68
2024/03/07 08:43:16;;;;;;;50.25;24.42;;;2.70;99.90;;;;;;5072518;28;20385;-68
2024/03/07 08:45:41;;;;;;;44.55;22.92;;;2.70;99.90;;;;;;5075445;28;20036;-68
2024/03/07 08:48:08;;;;;;;48.08;23.65;;;2.70;99.90;;;;;;5082881;28;20040;-68
2024/03/07 08:50:35;;;;;;;45.63;23.17;;;2.60;99.90;;;;;;5091882;28;20050;-68
2024/03/07 08:53:04;;;;;;;42.95;21.23;;;2.80;99.90;;;;;;5092489;28;20036;-68
2024/03/07 08:55:30;;;;;;;53.35;24.00;;;2.80;99.90;;;;;;5093121;28;20124;-68
2024/03/07 08:57:56;;;;;;;45.67;21.45;;;2.80;99.90;;;;;;5084654;28;20039;-68
2024/03/07 09:00:25;;;;;;;44.08;21.13;;;2.80;99.90;;;;;;5084032;28;20032;-68
2024/03/07 09:02:58;;;;;;;39.67;20.45;;;2.70;99.90;;;;;;5092805;28;20105;-69
2024/03/07 09:05:24;;;;;;;44.22;21.52;;;2.80;99.90;;;;;;5090879;28;20036;-68
2024/03/07 09:07:52;;;;;;;39.38;20.13;;;2.80;99.90;;;;;;5077295;28;20090;-69
2024/03/07 09:10:19;;;;;;;39.78;19.77;;;2.60;99.90;;;;;;5081717;28;20071;-68
2024/03/07 09:12:45;;;;;;;40.08;21.33;;;2.70;99.90;;;;;;5080765;28;20025;-68
2024/03/07 09:15:11;;;;;;;48.80;21.95;;;2.90;99.90;;;;;;5082431;28;20070;-68
2024/03/07 09:17:38;;;;;;;38.85;19.13;;;2.80;99.90;;;;;;5079729;28;20040;-68
2024/03/07 09:20:08;;;;;;;41.60;20.40;;;2.80;99.90;;;;;;5081566;28;20447;-68
2024/03/07 09:22:34;;;;;;;45.17;21.65;;;2.80;99.90;;;;;;5086063;28;20039;-68
2024/03/07 09:25:01;;;;;;;37.97;20.67;;;2.80;99.90;;;;;;5083785;28;20550;-68
2024/03/07 09:27:26;;;;;;;39.63;21.20;;;3.00;99.90;;;;;;5083666;28;20484;-68
2024/03/07 09:29:52;;;;;;;40.10;20.48;;;2.90;99.90;;;;;;5092395;28;20054;-68
2024/03/07 09:32:18;;;;;;;41.42;19.67;;;2.90;99.90;;;;;;5092184;28;20043;-70
2024/03/07 09:34:44;;;;;;;37.28;20.45;;;2.90;99.90;;;;;;5092467;28;20155;-68
2024/03/07 09:37:10;;;;;;;41.63;20.90;;;3.10;99.90;;;;;;5092617;28;20117;-68
2024/03/07 09:39:35;;;;;;;43.45;19.08;;;3.00;99.90;;;;;;5092191;28;20101;-68
2024/03/07 09:42:02;;;;;;;39.42;18.83;;;3.00;99.90;;;;;;5091854;28;20600;-68
2024/03/07 09:44:28;;;;;;;38.90;18.63;;;3.00;99.90;;;;;;5092235;28;20530;-68
2024/03/07 09:47:00;;;;;;;38.17;19.27;;;3.20;99.90;;;;;;5092369;28;20403;-68
2024/03/07 09:49:28;;;;;;;37.80;20.33;;;3.20;99.90;;;;;;5090827;28;20492;-68
2024/03/07 09:51:56;;;;;;;35.75;18.42;;;3.20;99.90;;;;;;5091789;28;20036;-68
2024/03/07 09:54:24;;;;;;;41.88;20.00;;;3.10;99.90;;;;;;5091850;28;20059;-69
2024/03/07 09:56:53;;;;;;;36.38;19.42;;;3.00;99.90;;;;;;5090723;28;20157;-68
2024/03/07 09:59:23;;;;;;;44.63;19.40;;;3.10;99.90;;;;;;5084790;28;20036;-68
2024/03/07 10:01:51;;;;;;;41.83;20.50;;;3.00;99.90;;;;;;5080592;28;20036;-68
2024/03/07 10:04:37;;;;;;;40.50;21.13;;;3.30;99.90;;;;;;5086022;28;20055;-68
2024/03/07 10:07:03;;;;;;;45.78;21.98;;;3.20;99.90;;;;;;5090207;28;20514;-68
2024/03/07 10:09:32;;;;;;;44.40;21.40;;;3.30;99.90;;;;;;5081582;28;20094;-68
2024/03/07 10:11:58;;;;;;;44.35;20.25;;;3.10;99.90;;;;;;5081610;28;20081;-68
2024/03/07 10:14:24;;;;;;;41.55;20.23;;;3.30;99.90;;;;;;5088904;28;20032;-69
2024/03/07 10:16:50;;;;;;;41.05;18.60;;;3.20;99.90;;;;;;5091843;28;20092;-68
2024/03/07 10:19:16;;;;;;;42.40;20.10;;;3.20;99.90;;;;;;5091408;28;20468;-68
2024/03/07 10:21:42;;;;;;;41.13;21.20;;;3.20;99.90;;;;;;5091139;28;20146;-68
2024/03/07 10:24:09;;;;;;;42.05;20.02;;;3.40;99.90;;;;;;5091949;28;20036;-68
2024/03/07 10:26:37;;;;;;;42.42;20.67;;;3.40;99.90;;;;;;5091642;28;20040;-68
2024/03/07 10:29:04;;;;;;;40.30;21.38;;;3.40;99.90;;;;;;5090234;28;20051;-69
2024/03/07 10:31:31;;;;;;;42.85;19.23;;;3.40;99.90;;;;;;5090294;28;20036;-68
2024/03/07 10:34:08;;;;;;;42.92;20.17;;;3.50;99.90;;;;;;5091711;28;20044;-69
2024/03/07 10:36:34;;;;;;;39.47;20.13;;;3.60;99.90;;;;;;5091474;28;20043;-69
2024/03/07 10:39:13;;;;;;;42.15;20.60;;;3.50;99.90;;;;;;5090925;28;20127;-68
2024/03/07 10:41:50;;;;;;;40.42;19.33;;;3.70;99.90;;;;;;5091333;28;20036;-68
2024/03/07 10:44:21;;;;;;;35.50;18.42;;;3.70;99.90;;;;;;5090070;28;20036;-68
2024/03/07 10:46:53;;;;;;;46.00;22.05;;;3.90;99.90;;;;;;5089698;28;20060;-68
2024/03/07 10:49:24;;;;;;;41.67;19.63;;;3.80;99.90;;;;;;5090927;28;20044;-68
2024/03/07 10:52:13;;;;;;;33.05;19.08;;;3.90;99.90;;;;;;5091162;28;20381;-68
2024/03/07 10:54:53;;;;;;;43.10;20.98;;;4.10;99.90;;;;;;5091534;28;20044;-68
2024/03/07 10:57:25;;;;;;;49.05;20.48;;;4.20;99.90;;;;;;5076572;28;20051;-67
2024/03/07 10:59:58;;;;;;;36.97;19.08;;;4.20;99.90;;;;;;5077584;28;21599;-68
2024/03/07 11:02:24;;;;;;;39.45;20.23;;;4.30;99.90;;;;;;5083215;28;20080;-67
2024/03/07 11:04:51;;;;;;;43.25;19.67;;;4.40;99.90;;;;;;5079838;28;20055;-67
2024/03/07 11:07:22;;;;;;;41.75;21.27;;;4.40;99.90;;;;;;5077783;28;20396;-68
2024/03/07 11:09:51;;;;;;;46.92;21.08;;;4.40;99.90;;;;;;5073142;28;20044;-68
2024/03/07 11:12:20;;;;;;;37.85;19.13;;;4.50;99.90;;;;;;5070751;28;20048;-68
2024/03/07 11:14:48;;;;;;;41.65;20.30;;;4.50;99.90;;;;;;5069731;28;20032;-68
2024/03/07 11:17:15;;;;;;;42.13;19.75;;;4.60;99.90;;;;;;5072870;28;20108;-68
2024/03/07 11:19:42;;;;;;;43.15;21.15;;;4.70;99.90;;;;;;5074549;28;20153;-68
2024/03/07 11:22:15;;;;;;;43.10;21.40;;;4.70;99.90;;;;;;5074224;28;20044;-68
2024/03/07 11:24:42;;;;;;;40.72;19.95;;;4.80;99.90;;;;;;5074819;28;20048;-68
2024/03/07 11:27:11;;;;;;;40.28;19.60;;;4.90;99.90;;;;;;5074657;28;20568;-68
2024/03/07 11:29:52;;;;;;;44.60;20.08;;;5.00;99.90;;;;;;5074378;28;20048;-68
2024/03/07 11:32:20;;;;;;;40.53;20.05;;;5.00;99.90;;;;;;5074109;28;20111;-68
2024/03/07 11:34:47;;;;;;;43.72;21.08;;;5.10;99.90;;;;;;5074428;28;20161;-68
2024/03/07 11:37:48;;;;;;;43.33;18.90;;;5.30;99.90;;;;;;5073359;28;20137;-68
2024/03/07 11:40:20;;;;;;;43.03;19.98;;;5.30;99.90;;;;;;5074222;28;20040;-68
2024/03/07 11:42:50;;;;;;;37.78;19.60;;;5.30;99.90;;;;;;5073908;28;20075;-67
2024/03/07 11:45:27;;;;;;;39.22;19.67;;;5.30;99.90;;;;;;5074319;28;20045;-67
2024/03/07 11:47:59;;;;;;;35.40;18.35;;;5.40;99.90;;;;;;5074334;28;20162;-68
2024/03/07 11:50:28;;;;;;;35.38;18.08;;;5.50;99.90;;;;;;5072994;28;20181;-68
2024/03/07 11:52:54;;;;;;;36.45;18.50;;;5.60;99.90;;;;;;5073764;28;20040;-68
2024/03/07 11:55:21;;;;;;;34.55;17.52;;;5.70;99.90;;;;;;5073010;28;20037;-68
2024/03/07 11:57:48;;;;;;;32.92;17.80;;;5.80;99.90;;;;;;5073966;28;20440;-68
2024/03/07 12:00:15;;;;;;;38.95;18.73;;;5.80;99.90;;;;;;5073408;28;20052;-68
2024/03/07 12:02:43;;;;;;;33.67;18.55;;;5.80;99.90;;;;;;5081038;28;20044;-68
2024/03/07 12:05:09;;;;;;;34.38;16.33;;;5.80;99.90;;;;;;5081867;28;20047;-68
2024/03/07 12:07:35;;;;;;;33.13;17.00;;;5.80;99.90;;;;;;5083713;28;20044;-68
2024/03/07 12:10:03;;;;;;;32.22;16.65;;;5.80;99.90;;;;;;5081159;28;20028;-69
2024/03/07 12:12:29;;;;;;;35.83;16.58;;;5.80;99.90;;;;;;5092100;28;20123;-69
2024/03/07 12:14:55;;;;;;;31.17;17.92;;;5.90;99.90;;;;;;5092995;28;20115;-68
2024/03/07 12:17:22;;;;;;;34.20;17.27;;;5.80;99.90;;;;;;5093647;28;20094;-68
2024/03/07 12:19:51;;;;;;;34.03;16.80;;;5.90;99.90;;;;;;5057334;28;21028;-67
2024/03/07 12:22:22;;;;;;;31.75;16.67;;;5.90;99.90;;;;;;5050425;28;20078;-69
2024/03/07 12:24:59;;;;;;;30.52;15.40;;;5.90;99.90;;;;;;5050592;28;20056;-66
2024/03/07 12:27:24;;;;;;;33.35;16.45;;;5.90;99.90;;;;;;5050587;28;20040;-68
2024/03/07 12:29:52;;;;;;;31.20;16.23;;;6.00;99.90;;;;;;5079541;28;20043;-67
2024/03/07 12:32:18;;;;;;;29.40;16.55;;;5.90;99.90;;;;;;5076516;28;20467;-68
2024/03/07 12:34:46;;;;;;;28.08;14.20;;;5.90;99.90;;;;;;5071890;28;20123;-67
2024/03/07 12:37:16;;;;;;;30.88;16.55;;;5.90;99.90;;;;;;5073245;28;20046;-67